Toluca, MEX, Mexico
Current Conditions -  °F | °C
As of 4:44 AM on Wednesday 22 Oct 2014 (Local Time) from MMTO Reporting Station
Scattered Clouds Scattered Clouds  
Wind Chill: 46°   Ceiling: Unl
Heat Index: 48°   Visibility: 4mi
Dew Point: 43°   Wind: 5mph
Humidity: 82%   Direction: 330°NNW
Pressure: 30.28"   Gusts: NA
Location:  19.29°N, 99.67°W
Report Text: MMTO 220944Z 33004KT 4SM FEW015 SCT070 09/06 A3028 RMK 8/470 HZ
Loading
Personal Weather Stations






























Interactive Weather Map
Tropical Storm Tracking
New forecast layout! Learn more

10-Day Weather Forecast

Advertisements
Track Severe Weather on mobile